sensor_id;sensor_type;location;lat;lon;timestamp;temperature;humidity
14122;DHT22;7139;48.114;11.442;2023-02-13T00:00:15;3.10;99.90
14122;DHT22;7139;48.114;11.442;2023-02-13T00:02:42;3.10;99.90
14122;DHT22;7139;48.114;11.442;2023-02-13T00:05:09;3.10;99.90
14122;DHT22;7139;48.114;11.442;2023-02-13T00:07:37;3.10;99.90
14122;DHT22;7139;48.114;11.442;2023-02-13T00:10:04;3.10;99.90
14122;DHT22;7139;48.114;11.442;2023-02-13T00:12:31;3.10;99.90
14122;DHT22;7139;48.114;11.442;2023-02-13T00:14:59;3.10;99.90
14122;DHT22;7139;48.114;11.442;2023-02-13T00:17:26;3.10;99.90
14122;DHT22;7139;48.114;11.442;2023-02-13T00:19:53;3.00;99.90
14122;DHT22;7139;48.114;11.442;2023-02-13T00:22:19;3.00;99.90
14122;DHT22;7139;48.114;11.442;2023-02-13T00:24:46;3.10;99.90
14122;DHT22;7139;48.114;11.442;2023-02-13T00:27:13;3.10;99.90
14122;DHT22;7139;48.114;11.442;2023-02-13T00:29:40;3.00;99.90
14122;DHT22;7139;48.114;11.442;2023-02-13T00:32:08;3.00;99.90
14122;DHT22;7139;48.114;11.442;2023-02-13T00:34:34;3.00;99.90
14122;DHT22;7139;48.114;11.442;2023-02-13T00:37:01;3.00;99.90
14122;DHT22;7139;48.114;11.442;2023-02-13T00:39:28;3.10;99.90
14122;DHT22;7139;48.114;11.442;2023-02-13T00:41:55;3.10;99.90
14122;DHT22;7139;48.114;11.442;2023-02-13T00:44:22;3.10;99.90
14122;DHT22;7139;48.114;11.442;2023-02-13T00:46:48;3.10;99.90
14122;DHT22;7139;48.114;11.442;2023-02-13T00:49:16;3.10;99.90
14122;DHT22;7139;48.114;11.442;2023-02-13T00:51:43;3.10;99.90
14122;DHT22;7139;48.114;11.442;2023-02-13T00:54:10;3.10;99.90
14122;DHT22;7139;48.114;11.442;2023-02-13T00:56:37;3.10;99.90
14122;DHT22;7139;48.114;11.442;2023-02-13T00:59:03;3.10;99.90
14122;DHT22;7139;48.114;11.442;2023-02-13T01:01:30;3.10;99.90
14122;DHT22;7139;48.114;11.442;2023-02-13T01:03:57;3.10;99.90
14122;DHT22;7139;48.114;11.442;2023-02-13T01:06:25;3.10;99.90
14122;DHT22;7139;48.114;11.442;2023-02-13T01:08:51;3.10;99.90
14122;DHT22;7139;48.114;11.442;2023-02-13T01:11:18;3.10;99.90
14122;DHT22;7139;48.114;11.442;2023-02-13T01:13:45;3.10;99.90
14122;DHT22;7139;48.114;11.442;2023-02-13T01:16:12;3.10;99.90
14122;DHT22;7139;48.114;11.442;2023-02-13T01:18:40;3.10;99.90
14122;DHT22;7139;48.114;11.442;2023-02-13T01:21:14;3.10;99.90
14122;DHT22;7139;48.114;11.442;2023-02-13T01:23:44;3.10;99.90
14122;DHT22;7139;48.114;11.442;2023-02-13T01:26:17;3.10;99.90
14122;DHT22;7139;48.114;11.442;2023-02-13T01:28:44;3.10;99.90
14122;DHT22;7139;48.114;11.442;2023-02-13T01:31:11;3.10;99.90
14122;DHT22;7139;48.114;11.442;2023-02-13T01:33:38;3.10;99.90
14122;DHT22;7139;48.114;11.442;2023-02-13T01:36:06;3.20;99.90
14122;DHT22;7139;48.114;11.442;2023-02-13T01:38:33;3.20;99.90
14122;DHT22;7139;48.114;11.442;2023-02-13T01:41:01;3.20;99.90
14122;DHT22;7139;48.114;11.442;2023-02-13T01:43:46;3.20;99.90
14122;DHT22;7139;48.114;11.442;2023-02-13T01:46:17;3.20;99.90
14122;DHT22;7139;48.114;11.442;2023-02-13T01:48:45;3.20;99.90
14122;DHT22;7139;48.114;11.442;2023-02-13T01:51:16;3.20;99.90
14122;DHT22;7139;48.114;11.442;2023-02-13T01:53:46;3.20;99.90
14122;DHT22;7139;48.114;11.442;2023-02-13T01:56:19;3.20;99.90
14122;DHT22;7139;48.114;11.442;2023-02-13T01:58:49;3.20;99.90
14122;DHT22;7139;48.114;11.442;2023-02-13T02:01:16;3.30;99.90
14122;DHT22;7139;48.114;11.442;2023-02-13T02:03:47;3.20;99.90
14122;DHT22;7139;48.114;11.442;2023-02-13T02:06:18;3.20;99.90
14122;DHT22;7139;48.114;11.442;2023-02-13T02:08:48;3.30;99.90
14122;DHT22;7139;48.114;11.442;2023-02-13T02:11:24;3.30;99.90
14122;DHT22;7139;48.114;11.442;2023-02-13T02:13:52;3.30;99.90
14122;DHT22;7139;48.114;11.442;2023-02-13T02:16:19;3.30;99.90
14122;DHT22;7139;48.114;11.442;2023-02-13T02:18:46;3.30;99.90
14122;DHT22;7139;48.114;11.442;2023-02-13T02:24:33;3.30;99.90
14122;DHT22;7139;48.114;11.442;2023-02-13T02:27:26;3.20;99.90
14122;DHT22;7139;48.114;11.442;2023-02-13T02:30:21;3.20;99.90
14122;DHT22;7139;48.114;11.442;2023-02-13T02:32:59;3.20;99.90
14122;DHT22;7139;48.114;11.442;2023-02-13T02:35:35;3.30;99.90
14122;DHT22;7139;48.114;11.442;2023-02-13T02:38:12;3.20;99.90
14122;DHT22;7139;48.114;11.442;2023-02-13T02:40:48;3.20;99.90
14122;DHT22;7139;48.114;11.442;2023-02-13T02:43:28;3.20;99.90
14122;DHT22;7139;48.114;11.442;2023-02-13T02:46:05;3.30;99.90
14122;DHT22;7139;48.114;11.442;2023-02-13T02:48:43;3.20;99.90
14122;DHT22;7139;48.114;11.442;2023-02-13T02:51:38;3.20;99.90
14122;DHT22;7139;48.114;11.442;2023-02-13T02:54:09;3.20;99.90
14122;DHT22;7139;48.114;11.442;2023-02-13T02:56:53;3.20;99.90
14122;DHT22;7139;48.114;11.442;2023-02-13T02:59:24;3.30;99.90
14122;DHT22;7139;48.114;11.442;2023-02-13T03:02:11;3.20;99.90
14122;DHT22;7139;48.114;11.442;2023-02-13T03:04:58;3.20;99.90
14122;DHT22;7139;48.114;11.442;2023-02-13T03:07:44;3.30;99.90
14122;DHT22;7139;48.114;11.442;2023-02-13T03:10:16;3.30;99.90
14122;DHT22;7139;48.114;11.442;2023-02-13T03:13:06;3.20;99.90
14122;DHT22;7139;48.114;11.442;2023-02-13T03:15:47;3.30;99.90
14122;DHT22;7139;48.114;11.442;2023-02-13T03:18:31;3.30;99.90
14122;DHT22;7139;48.114;11.442;2023-02-13T03:21:29;3.30;99.90
14122;DHT22;7139;48.114;11.442;2023-02-13T03:24:24;3.30;99.90
14122;DHT22;7139;48.114;11.442;2023-02-13T03:26:57;3.30;99.90
14122;DHT22;7139;48.114;11.442;2023-02-13T03:29:33;3.30;99.90
14122;DHT22;7139;48.114;11.442;2023-02-13T03:32:26;3.30;99.90
14122;DHT22;7139;48.114;11.442;2023-02-13T03:35:03;3.30;99.90
14122;DHT22;7139;48.114;11.442;2023-02-13T03:37:57;3.20;99.90
14122;DHT22;7139;48.114;11.442;2023-02-13T03:40:30;3.10;99.90
14122;DHT22;7139;48.114;11.442;2023-02-13T03:43:05;3.10;99.90
14122;DHT22;7139;48.114;11.442;2023-02-13T03:45:36;3.10;99.90
14122;DHT22;7139;48.114;11.442;2023-02-13T03:48:21;3.10;99.90
14122;DHT22;7139;48.114;11.442;2023-02-13T03:51:06;3.00;99.90
14122;DHT22;7139;48.114;11.442;2023-02-13T03:53:36;3.00;99.90
14122;DHT22;7139;48.114;11.442;2023-02-13T03:56:05;3.00;99.90
14122;DHT22;7139;48.114;11.442;2023-02-13T03:58:53;3.00;99.90
14122;DHT22;7139;48.114;11.442;2023-02-13T04:01:44;3.00;99.90
14122;DHT22;7139;48.114;11.442;2023-02-13T04:04:19;2.90;99.90
14122;DHT22;7139;48.114;11.442;2023-02-13T04:06:49;2.90;99.90
14122;DHT22;7139;48.114;11.442;2023-02-13T04:09:19;3.00;99.90
14122;DHT22;7139;48.114;11.442;2023-02-13T04:11:50;2.90;99.90
14122;DHT22;7139;48.114;11.442;2023-02-13T04:14:22;3.00;99.90
14122;DHT22;7139;48.114;11.442;2023-02-13T04:16:52;3.00;99.90
14122;DHT22;7139;48.114;11.442;2023-02-13T04:19:21;3.00;99.90
14122;DHT22;7139;48.114;11.442;2023-02-13T04:21:55;2.90;99.90
14122;DHT22;7139;48.114;11.442;2023-02-13T04:24:24;2.90;99.90
14122;DHT22;7139;48.114;11.442;2023-02-13T04:26:52;2.80;99.90
14122;DHT22;7139;48.114;11.442;2023-02-13T04:29:19;2.80;99.90
14122;DHT22;7139;48.114;11.442;2023-02-13T04:31:46;2.90;99.90
14122;DHT22;7139;48.114;11.442;2023-02-13T04:34:13;2.90;99.90
14122;DHT22;7139;48.114;11.442;2023-02-13T04:36:40;2.90;99.90
14122;DHT22;7139;48.114;11.442;2023-02-13T04:39:07;2.90;99.90
14122;DHT22;7139;48.114;11.442;2023-02-13T04:41:35;2.90;99.90
14122;DHT22;7139;48.114;11.442;2023-02-13T04:44:02;2.80;99.90
14122;DHT22;7139;48.114;11.442;2023-02-13T04:46:29;2.80;99.90
14122;DHT22;7139;48.114;11.442;2023-02-13T04:48:56;2.80;99.90
14122;DHT22;7139;48.114;11.442;2023-02-13T04:51:23;2.80;99.90
14122;DHT22;7139;48.114;11.442;2023-02-13T04:53:49;2.80;99.90
14122;DHT22;7139;48.114;11.442;2023-02-13T04:56:16;2.80;99.90
14122;DHT22;7139;48.114;11.442;2023-02-13T04:58:44;2.80;99.90
14122;DHT22;7139;48.114;11.442;2023-02-13T05:01:12;2.80;99.90
14122;DHT22;7139;48.114;11.442;2023-02-13T05:03:39;2.80;99.90
14122;DHT22;7139;48.114;11.442;2023-02-13T05:06:06;2.80;99.90
14122;DHT22;7139;48.114;11.442;2023-02-13T05:08:33;2.70;99.90
14122;DHT22;7139;48.114;11.442;2023-02-13T05:11:00;2.70;99.90
14122;DHT22;7139;48.114;11.442;2023-02-13T05:13:27;2.70;99.90
14122;DHT22;7139;48.114;11.442;2023-02-13T05:15:55;2.60;99.90
14122;DHT22;7139;48.114;11.442;2023-02-13T05:18:22;2.60;99.90
14122;DHT22;7139;48.114;11.442;2023-02-13T05:20:49;2.60;99.90
14122;DHT22;7139;48.114;11.442;2023-02-13T05:23:30;2.60;99.90
14122;DHT22;7139;48.114;11.442;2023-02-13T05:25:57;2.60;99.90
14122;DHT22;7139;48.114;11.442;2023-02-13T05:28:24;2.60;99.90
14122;DHT22;7139;48.114;11.442;2023-02-13T05:31:15;5.40;99.90
14122;DHT22;7139;48.114;11.442;2023-02-13T05:33:41;11.90;99.90
14122;DHT22;7139;48.114;11.442;2023-02-13T05:36:08;13.70;92.60
14122;DHT22;7139;48.114;11.442;2023-02-13T05:38:35;13.30;90.40
14122;DHT22;7139;48.114;11.442;2023-02-13T05:41:02;12.20;90.50
14122;DHT22;7139;48.114;11.442;2023-02-13T05:43:29;11.00;91.60
14122;DHT22;7139;48.114;11.442;2023-02-13T05:46:03;9.80;92.80
14122;DHT22;7139;48.114;11.442;2023-02-13T05:48:31;8.50;94.60
14122;DHT22;7139;48.114;11.442;2023-02-13T05:50:58;7.40;96.30
14122;DHT22;7139;48.114;11.442;2023-02-13T05:53:25;6.40;98.20
14122;DHT22;7139;48.114;11.442;2023-02-13T05:55:54;5.70;99.70
14122;DHT22;7139;48.114;11.442;2023-02-13T05:58:21;5.10;99.90
14122;DHT22;7139;48.114;11.442;2023-02-13T06:00:47;4.70;99.90
14122;DHT22;7139;48.114;11.442;2023-02-13T06:03:14;4.30;99.90
14122;DHT22;7139;48.114;11.442;2023-02-13T06:05:42;4.00;99.90
14122;DHT22;7139;48.114;11.442;2023-02-13T06:08:09;3.80;99.90
14122;DHT22;7139;48.114;11.442;2023-02-13T06:10:36;3.60;99.90
14122;DHT22;7139;48.114;11.442;2023-02-13T06:13:03;3.40;99.90
14122;DHT22;7139;48.114;11.442;2023-02-13T06:15:29;3.20;99.90
14122;DHT22;7139;48.114;11.442;2023-02-13T06:17:56;3.10;99.90
14122;DHT22;7139;48.114;11.442;2023-02-13T06:20:23;2.90;99.90
14122;DHT22;7139;48.114;11.442;2023-02-13T06:22:52;2.90;99.90
14122;DHT22;7139;48.114;11.442;2023-02-13T06:25:19;2.80;99.90
14122;DHT22;7139;48.114;11.442;2023-02-13T06:27:46;2.70;99.90
14122;DHT22;7139;48.114;11.442;2023-02-13T06:30:14;2.70;99.90
14122;DHT22;7139;48.114;11.442;2023-02-13T06:32:41;2.70;99.90
14122;DHT22;7139;48.114;11.442;2023-02-13T06:35:08;2.60;99.90
14122;DHT22;7139;48.114;11.442;2023-02-13T06:37:35;2.60;99.90
14122;DHT22;7139;48.114;11.442;2023-02-13T06:40:04;2.50;99.90
14122;DHT22;7139;48.114;11.442;2023-02-13T06:42:31;2.50;99.90
14122;DHT22;7139;48.114;11.442;2023-02-13T06:44:58;2.50;99.90
14122;DHT22;7139;48.114;11.442;2023-02-13T06:47:25;2.50;99.90
14122;DHT22;7139;48.114;11.442;2023-02-13T06:49:52;2.50;99.90
14122;DHT22;7139;48.114;11.442;2023-02-13T06:52:19;2.40;99.90
14122;DHT22;7139;48.114;11.442;2023-02-13T06:54:45;2.40;99.90
14122;DHT22;7139;48.114;11.442;2023-02-13T06:57:14;2.40;99.90
14122;DHT22;7139;48.114;11.442;2023-02-13T06:59:40;2.40;99.90
14122;DHT22;7139;48.114;11.442;2023-02-13T07:02:08;2.40;99.90
14122;DHT22;7139;48.114;11.442;2023-02-13T07:04:35;2.40;99.90
14122;DHT22;7139;48.114;11.442;2023-02-13T07:07:02;2.40;99.90
14122;DHT22;7139;48.114;11.442;2023-02-13T07:09:29;2.40;99.90
14122;DHT22;7139;48.114;11.442;2023-02-13T07:11:56;2.40;99.90
14122;DHT22;7139;48.114;11.442;2023-02-13T07:14:25;2.40;99.90
14122;DHT22;7139;48.114;11.442;2023-02-13T07:16:51;2.40;99.90
14122;DHT22;7139;48.114;11.442;2023-02-13T07:19:18;2.40;99.90
14122;DHT22;7139;48.114;11.442;2023-02-13T07:21:45;2.40;99.90
14122;DHT22;7139;48.114;11.442;2023-02-13T07:24:12;2.50;99.90
14122;DHT22;7139;48.114;11.442;2023-02-13T07:26:38;2.50;99.90
14122;DHT22;7139;48.114;11.442;2023-02-13T07:29:05;2.50;99.90
14122;DHT22;7139;48.114;11.442;2023-02-13T07:31:34;2.50;99.90
14122;DHT22;7139;48.114;11.442;2023-02-13T07:34:01;2.50;99.90
14122;DHT22;7139;48.114;11.442;2023-02-13T07:36:27;2.40;99.90
14122;DHT22;7139;48.114;11.442;2023-02-13T07:38:54;2.40;99.90
14122;DHT22;7139;48.114;11.442;2023-02-13T07:41:21;2.40;99.90
14122;DHT22;7139;48.114;11.442;2023-02-13T07:43:51;2.40;99.90
14122;DHT22;7139;48.114;11.442;2023-02-13T07:46:18;2.50;99.90
14122;DHT22;7139;48.114;11.442;2023-02-13T07:48:46;2.50;99.90
14122;DHT22;7139;48.114;11.442;2023-02-13T07:51:12;2.50;99.90
14122;DHT22;7139;48.114;11.442;2023-02-13T07:53:40;2.50;99.90
14122;DHT22;7139;48.114;11.442;2023-02-13T07:56:08;2.50;99.90
14122;DHT22;7139;48.114;11.442;2023-02-13T07:58:35;2.40;99.90
14122;DHT22;7139;48.114;11.442;2023-02-13T08:01:08;2.40;99.90
14122;DHT22;7139;48.114;11.442;2023-02-13T08:03:35;2.40;99.90
14122;DHT22;7139;48.114;11.442;2023-02-13T08:06:04;2.40;99.90
14122;DHT22;7139;48.114;11.442;2023-02-13T08:08:31;2.40;99.90
14122;DHT22;7139;48.114;11.442;2023-02-13T08:11:03;2.40;99.90
14122;DHT22;7139;48.114;11.442;2023-02-13T08:13:48;2.40;99.90
14122;DHT22;7139;48.114;11.442;2023-02-13T08:16:16;2.40;99.90
14122;DHT22;7139;48.114;11.442;2023-02-13T08:18:42;2.40;99.90
14122;DHT22;7139;48.114;11.442;2023-02-13T08:21:11;2.40;99.90
14122;DHT22;7139;48.114;11.442;2023-02-13T08:23:39;2.40;99.90
14122;DHT22;7139;48.114;11.442;2023-02-13T08:26:06;2.50;99.90
14122;DHT22;7139;48.114;11.442;2023-02-13T08:28:32;2.50;99.90
14122;DHT22;7139;48.114;11.442;2023-02-13T08:30:59;2.50;99.90
14122;DHT22;7139;48.114;11.442;2023-02-13T08:33:26;2.50;99.90
14122;DHT22;7139;48.114;11.442;2023-02-13T08:35:53;2.60;99.90
14122;DHT22;7139;48.114;11.442;2023-02-13T08:38:21;2.60;99.90
14122;DHT22;7139;48.114;11.442;2023-02-13T08:40:48;2.60;99.90
14122;DHT22;7139;48.114;11.442;2023-02-13T08:43:15;2.60;99.90
14122;DHT22;7139;48.114;11.442;2023-02-13T08:45:42;2.60;99.90
14122;DHT22;7139;48.114;11.442;2023-02-13T08:48:08;2.60;99.90
14122;DHT22;7139;48.114;11.442;2023-02-13T08:50:35;2.60;99.90
14122;DHT22;7139;48.114;11.442;2023-02-13T08:53:02;2.60;99.90
14122;DHT22;7139;48.114;11.442;2023-02-13T08:55:30;2.60;99.90
14122;DHT22;7139;48.114;11.442;2023-02-13T08:57:59;2.70;99.90
14122;DHT22;7139;48.114;11.442;2023-02-13T09:00:26;2.70;99.90
14122;DHT22;7139;48.114;11.442;2023-02-13T09:02:53;2.70;99.90
14122;DHT22;7139;48.114;11.442;2023-02-13T09:05:20;2.60;99.90
14122;DHT22;7139;48.114;11.442;2023-02-13T09:07:46;2.60;99.90
14122;DHT22;7139;48.114;11.442;2023-02-13T09:10:13;2.60;99.90
14122;DHT22;7139;48.114;11.442;2023-02-13T09:12:41;2.70;99.90
14122;DHT22;7139;48.114;11.442;2023-02-13T09:15:08;2.70;99.90
14122;DHT22;7139;48.114;11.442;2023-02-13T09:17:35;2.80;99.90
14122;DHT22;7139;48.114;11.442;2023-02-13T09:20:02;2.80;99.90
14122;DHT22;7139;48.114;11.442;2023-02-13T09:22:29;2.80;99.90
14122;DHT22;7139;48.114;11.442;2023-02-13T09:24:56;2.90;99.90
14122;DHT22;7139;48.114;11.442;2023-02-13T09:27:23;2.90;99.90
14122;DHT22;7139;48.114;11.442;2023-02-13T09:29:51;2.80;99.90
14122;DHT22;7139;48.114;11.442;2023-02-13T09:32:18;2.90;99.90
14122;DHT22;7139;48.114;11.442;2023-02-13T09:34:46;2.90;99.90
14122;DHT22;7139;48.114;11.442;2023-02-13T09:37:12;3.00;99.90
14122;DHT22;7139;48.114;11.442;2023-02-13T09:39:39;3.00;99.90
14122;DHT22;7139;48.114;11.442;2023-02-13T09:42:16;3.00;99.90
14122;DHT22;7139;48.114;11.442;2023-02-13T09:44:44;3.00;99.90
14122;DHT22;7139;48.114;11.442;2023-02-13T09:47:15;3.00;99.90
14122;DHT22;7139;48.114;11.442;2023-02-13T09:49:45;3.00;99.90
14122;DHT22;7139;48.114;11.442;2023-02-13T09:52:14;2.90;99.90
14122;DHT22;7139;48.114;11.442;2023-02-13T09:54:40;2.80;99.90
14122;DHT22;7139;48.114;11.442;2023-02-13T09:57:14;2.80;99.90
14122;DHT22;7139;48.114;11.442;2023-02-13T09:59:53;2.90;99.90
14122;DHT22;7139;48.114;11.442;2023-02-13T10:02:39;3.00;99.90
14122;DHT22;7139;48.114;11.442;2023-02-13T10:05:20;3.00;99.90
14122;DHT22;7139;48.114;11.442;2023-02-13T10:07:54;3.00;99.90
14122;DHT22;7139;48.114;11.442;2023-02-13T10:10:27;3.10;99.90
14122;DHT22;7139;48.114;11.442;2023-02-13T10:13:04;3.20;99.90
14122;DHT22;7139;48.114;11.442;2023-02-13T10:15:40;3.20;99.90
14122;DHT22;7139;48.114;11.442;2023-02-13T10:18:14;3.20;99.90
14122;DHT22;7139;48.114;11.442;2023-02-13T10:20:45;3.20;99.90
14122;DHT22;7139;48.114;11.442;2023-02-13T10:23:19;3.20;99.90
14122;DHT22;7139;48.114;11.442;2023-02-13T10:25:51;3.20;99.90
14122;DHT22;7139;48.114;11.442;2023-02-13T10:28:29;3.30;99.90
14122;DHT22;7139;48.114;11.442;2023-02-13T10:31:01;3.30;99.90
14122;DHT22;7139;48.114;11.442;2023-02-13T10:33:35;3.30;99.90
14122;DHT22;7139;48.114;11.442;2023-02-13T10:36:10;3.30;99.90
14122;DHT22;7139;48.114;11.442;2023-02-13T10:38:43;3.30;99.90
14122;DHT22;7139;48.114;11.442;2023-02-13T10:41:24;3.30;99.90
14122;DHT22;7139;48.114;11.442;2023-02-13T10:44:11;3.30;99.90
14122;DHT22;7139;48.114;11.442;2023-02-13T10:46:54;3.30;99.90
14122;DHT22;7139;48.114;11.442;2023-02-13T10:49:45;3.40;99.90
14122;DHT22;7139;48.114;11.442;2023-02-13T10:52:22;3.40;99.90
14122;DHT22;7139;48.114;11.442;2023-02-13T10:55:05;3.40;99.90
14122;DHT22;7139;48.114;11.442;2023-02-13T10:57:46;3.50;99.90
14122;DHT22;7139;48.114;11.442;2023-02-13T11:00:23;3.50;99.90
14122;DHT22;7139;48.114;11.442;2023-02-13T11:02:50;3.60;99.90
14122;DHT22;7139;48.114;11.442;2023-02-13T11:05:21;3.60;99.90
14122;DHT22;7139;48.114;11.442;2023-02-13T11:07:49;3.60;99.90
14122;DHT22;7139;48.114;11.442;2023-02-13T11:10:18;3.60;99.90
14122;DHT22;7139;48.114;11.442;2023-02-13T11:12:45;3.60;99.90
14122;DHT22;7139;48.114;11.442;2023-02-13T11:15:24;3.60;99.90
14122;DHT22;7139;48.114;11.442;2023-02-13T11:17:52;3.60;99.90
14122;DHT22;7139;48.114;11.442;2023-02-13T11:20:29;3.60;99.90
14122;DHT22;7139;48.114;11.442;2023-02-13T11:23:24;3.60;99.90
14122;DHT22;7139;48.114;11.442;2023-02-13T11:25:56;3.60;99.90
14122;DHT22;7139;48.114;11.442;2023-02-13T11:28:23;3.70;99.90
14122;DHT22;7139;48.114;11.442;2023-02-13T11:30:50;3.70;99.90
14122;DHT22;7139;48.114;11.442;2023-02-13T11:33:23;3.60;99.90
14122;DHT22;7139;48.114;11.442;2023-02-13T11:36:04;3.70;99.90
14122;DHT22;7139;48.114;11.442;2023-02-13T11:38:31;3.70;99.90
14122;DHT22;7139;48.114;11.442;2023-02-13T11:41:05;3.80;99.90
14122;DHT22;7139;48.114;11.442;2023-02-13T11:43:35;3.80;99.90
14122;DHT22;7139;48.114;11.442;2023-02-13T11:46:04;3.80;99.90
14122;DHT22;7139;48.114;11.442;2023-02-13T11:48:32;3.90;99.90
14122;DHT22;7139;48.114;11.442;2023-02-13T11:51:01;3.80;99.90
14122;DHT22;7139;48.114;11.442;2023-02-13T11:53:30;3.80;99.90
14122;DHT22;7139;48.114;11.442;2023-02-13T11:56:05;3.80;99.90
14122;DHT22;7139;48.114;11.442;2023-02-13T11:58:32;3.80;99.90
14122;DHT22;7139;48.114;11.442;2023-02-13T12:01:23;3.80;99.90
14122;DHT22;7139;48.114;11.442;2023-02-13T12:04:04;3.90;99.90
14122;DHT22;7139;48.114;11.442;2023-02-13T12:06:34;4.00;99.90
14122;DHT22;7139;48.114;11.442;2023-02-13T12:09:11;4.00;99.90
14122;DHT22;7139;48.114;11.442;2023-02-13T12:11:44;4.00;99.90
14122;DHT22;7139;48.114;11.442;2023-02-13T12:14:15;3.90;99.90
14122;DHT22;7139;48.114;11.442;2023-02-13T12:16:47;4.00;99.90
14122;DHT22;7139;48.114;11.442;2023-02-13T12:19:19;4.00;99.90
14122;DHT22;7139;48.114;11.442;2023-02-13T12:21:59;4.10;99.90
14122;DHT22;7139;48.114;11.442;2023-02-13T12:24:46;4.20;99.90
14122;DHT22;7139;48.114;11.442;2023-02-13T12:27:19;4.30;99.90
14122;DHT22;7139;48.114;11.442;2023-02-13T12:32:49;4.40;99.90
14122;DHT22;7139;48.114;11.442;2023-02-13T12:35:34;4.40;99.90
14122;DHT22;7139;48.114;11.442;2023-02-13T12:38:11;4.40;99.90
14122;DHT22;7139;48.114;11.442;2023-02-13T12:40:52;4.40;99.90
14122;DHT22;7139;48.114;11.442;2023-02-13T12:46:14;4.60;99.90
14122;DHT22;7139;48.114;11.442;2023-02-13T12:48:49;4.60;99.90
14122;DHT22;7139;48.114;11.442;2023-02-13T12:51:31;4.60;99.90
14122;DHT22;7139;48.114;11.442;2023-02-13T12:54:15;4.50;99.90
14122;DHT22;7139;48.114;11.442;2023-02-13T12:56:56;4.60;99.90
14122;DHT22;7139;48.114;11.442;2023-02-13T12:59:31;4.60;99.90
14122;DHT22;7139;48.114;11.442;2023-02-13T13:02:29;4.70;99.90
14122;DHT22;7139;48.114;11.442;2023-02-13T13:05:10;4.70;99.90
14122;DHT22;7139;48.114;11.442;2023-02-13T13:07:52;4.80;99.90
14122;DHT22;7139;48.114;11.442;2023-02-13T13:10:43;4.80;99.90
14122;DHT22;7139;48.114;11.442;2023-02-13T13:13:23;4.80;99.90
14122;DHT22;7139;48.114;11.442;2023-02-13T13:15:58;4.80;99.90
14122;DHT22;7139;48.114;11.442;2023-02-13T13:18:37;4.80;99.90
14122;DHT22;7139;48.114;11.442;2023-02-13T13:21:12;4.90;99.90
14122;DHT22;7139;48.114;11.442;2023-02-13T13:23:45;4.90;99.90
14122;DHT22;7139;48.114;11.442;2023-02-13T13:26:21;4.90;99.90
14122;DHT22;7139;48.114;11.442;2023-02-13T13:28:53;4.90;99.90
14122;DHT22;7139;48.114;11.442;2023-02-13T13:31:21;4.90;99.90
14122;DHT22;7139;48.114;11.442;2023-02-13T13:33:51;4.90;99.90
14122;DHT22;7139;48.114;11.442;2023-02-13T13:36:24;4.90;99.90
14122;DHT22;7139;48.114;11.442;2023-02-13T13:38:59;5.00;99.90
14122;DHT22;7139;48.114;11.442;2023-02-13T13:41:36;5.00;99.90
14122;DHT22;7139;48.114;11.442;2023-02-13T13:44:23;5.10;99.90
14122;DHT22;7139;48.114;11.442;2023-02-13T13:46:57;5.10;99.90
14122;DHT22;7139;48.114;11.442;2023-02-13T13:49:39;5.20;99.90
14122;DHT22;7139;48.114;11.442;2023-02-13T13:52:24;5.20;99.90
14122;DHT22;7139;48.114;11.442;2023-02-13T13:54:52;5.20;99.90
14122;DHT22;7139;48.114;11.442;2023-02-13T13:57:21;5.20;99.90
14122;DHT22;7139;48.114;11.442;2023-02-13T14:05:33;5.30;99.90
14122;DHT22;7139;48.114;11.442;2023-02-13T14:08:54;5.20;99.90
14122;DHT22;7139;48.114;11.442;2023-02-13T14:11:33;5.30;99.90
14122;DHT22;7139;48.114;11.442;2023-02-13T14:14:42;5.30;99.90
14122;DHT22;7139;48.114;11.442;2023-02-13T14:16:49;5.40;99.90
14122;DHT22;7139;48.114;11.442;2023-02-13T14:19:25;5.50;99.90
14122;DHT22;7139;48.114;11.442;2023-02-13T14:21:53;5.50;99.90
14122;DHT22;7139;48.114;11.442;2023-02-13T14:24:21;5.50;99.90
14122;DHT22;7139;48.114;11.442;2023-02-13T14:26:52;5.50;99.90
14122;DHT22;7139;48.114;11.442;2023-02-13T14:29:28;5.50;99.90
14122;DHT22;7139;48.114;11.442;2023-02-13T14:32:05;5.30;99.90
14122;DHT22;7139;48.114;11.442;2023-02-13T14:34:35;5.40;99.90
14122;DHT22;7139;48.114;11.442;2023-02-13T14:37:18;5.30;99.90
14122;DHT22;7139;48.114;11.442;2023-02-13T14:43:03;5.20;99.90
14122;DHT22;7139;48.114;11.442;2023-02-13T14:45:41;5.10;99.90
14122;DHT22;7139;48.114;11.442;2023-02-13T14:48:12;5.10;99.90
14122;DHT22;7139;48.114;11.442;2023-02-13T14:50:44;5.10;99.90
14122;DHT22;7139;48.114;11.442;2023-02-13T14:53:19;5.10;99.90
14122;DHT22;7139;48.114;11.442;2023-02-13T14:55:52;5.00;99.90
14122;DHT22;7139;48.114;11.442;2023-02-13T14:58:24;5.00;99.90
14122;DHT22;7139;48.114;11.442;2023-02-13T15:00:56;4.80;99.90
14122;DHT22;7139;48.114;11.442;2023-02-13T15:03:27;4.80;99.90
14122;DHT22;7139;48.114;11.442;2023-02-13T15:05:56;4.80;99.90
14122;DHT22;7139;48.114;11.442;2023-02-13T15:08:26;4.90;99.90
14122;DHT22;7139;48.114;11.442;2023-02-13T15:10:55;4.90;99.90
14122;DHT22;7139;48.114;11.442;2023-02-13T15:13:24;5.00;99.90
14122;DHT22;7139;48.114;11.442;2023-02-13T15:15:54;5.10;99.90
14122;DHT22;7139;48.114;11.442;2023-02-13T15:18:24;5.40;99.90
14122;DHT22;7139;48.114;11.442;2023-02-13T15:20:52;5.60;99.90
14122;DHT22;7139;48.114;11.442;2023-02-13T15:23:21;6.20;99.90
14122;DHT22;7139;48.114;11.442;2023-02-13T15:25:56;6.30;99.90
14122;DHT22;7139;48.114;11.442;2023-02-13T15:28:24;5.90;99.90
14122;DHT22;7139;48.114;11.442;2023-02-13T15:30:57;5.80;99.90
14122;DHT22;7139;48.114;11.442;2023-02-13T15:33:26;5.70;99.90
14122;DHT22;7139;48.114;11.442;2023-02-13T15:35:55;5.60;99.90
14122;DHT22;7139;48.114;11.442;2023-02-13T15:38:25;5.50;99.90
14122;DHT22;7139;48.114;11.442;2023-02-13T15:40:55;5.50;99.90
14122;DHT22;7139;48.114;11.442;2023-02-13T15:43:31;5.50;99.90
14122;DHT22;7139;48.114;11.442;2023-02-13T15:46:02;5.80;99.90
14122;DHT22;7139;48.114;11.442;2023-02-13T15:48:31;6.40;99.90
14122;DHT22;7139;48.114;11.442;2023-02-13T15:50:59;7.10;99.90
14122;DHT22;7139;48.114;11.442;2023-02-13T15:53:26;7.60;99.90
14122;DHT22;7139;48.114;11.442;2023-02-13T15:55:59;7.90;99.30
14122;DHT22;7139;48.114;11.442;2023-02-13T15:58:29;8.10;98.50
14122;DHT22;7139;48.114;11.442;2023-02-13T16:01:02;8.00;98.10
14122;DHT22;7139;48.114;11.442;2023-02-13T16:03:31;7.40;98.50
14122;DHT22;7139;48.114;11.442;2023-02-13T16:05:58;6.80;99.30
14122;DHT22;7139;48.114;11.442;2023-02-13T16:08:33;6.30;99.90
14122;DHT22;7139;48.114;11.442;2023-02-13T16:11:22;5.90;99.90
14122;DHT22;7139;48.114;11.442;2023-02-13T16:14:01;5.60;99.90
14122;DHT22;7139;48.114;11.442;2023-02-13T16:16:32;5.30;99.90
14122;DHT22;7139;48.114;11.442;2023-02-13T16:19:00;5.10;99.90
14122;DHT22;7139;48.114;11.442;2023-02-13T16:21:28;4.90;99.90
14122;DHT22;7139;48.114;11.442;2023-02-13T16:24:01;4.70;99.90
14122;DHT22;7139;48.114;11.442;2023-02-13T16:26:29;4.60;99.90
14122;DHT22;7139;48.114;11.442;2023-02-13T16:28:56;4.40;99.90
14122;DHT22;7139;48.114;11.442;2023-02-13T16:31:23;4.30;99.90